Terminal Aerodrome Forecast
Issued by NWS

Home | Current Version | Previous Version | Text Only | Print | Product List | Glossary On
Versions: 1 2 3 4 5 6 7 8 9 10 11 12 13
000
FTPA31 PHFO 261128
TAFHKO
TAF
PHKO 261128Z 2612/2712 VRB03KT P6SM SCT025 BKN050
     FM262100 25008KT P6SM SCT025 SCT050
     FM270500 VRB05KT P6SM FEW025 SCT050=

USA.gov is the U.S. government's official web portal to all federal, state and local government web resources and services.